createdAt,value
2017-06-16T00:00:35.042Z,1005.79
2017-06-16T00:01:15.630Z,1005.81
2017-06-16T00:01:56.231Z,1005.82
2017-06-16T00:02:36.878Z,1005.81
2017-06-16T00:03:17.468Z,1005.83
2017-06-16T00:03:58.051Z,1005.86
2017-06-16T00:04:38.645Z,1005.83
2017-06-16T00:05:19.225Z,1005.92
2017-06-16T00:05:59.883Z,1005.91
2017-06-16T00:06:40.472Z,1005.9
2017-06-16T00:07:21.081Z,1005.93
2017-06-16T00:08:01.796Z,1005.93
2017-06-16T00:08:42.388Z,1005.93
2017-06-16T00:09:22.989Z,1005.93
2017-06-16T00:10:03.598Z,1005.92
2017-06-16T00:10:44.187Z,1005.94
2017-06-16T00:11:24.764Z,1005.9
2017-06-16T00:12:05.358Z,1005.94
2017-06-16T00:12:45.963Z,1005.93
2017-06-16T00:13:26.592Z,1005.86
2017-06-16T00:14:07.192Z,1005.83
2017-06-16T00:14:47.768Z,1005.77
2017-06-16T00:15:28.369Z,1005.76
2017-06-16T00:16:08.968Z,1005.73
2017-06-16T00:16:49.551Z,1005.73
2017-06-16T00:17:30.137Z,1005.76
2017-06-16T00:18:10.751Z,1005.82
2017-06-16T00:18:51.333Z,1005.9
2017-06-16T00:19:31.922Z,1005.91
2017-06-16T00:20:12.531Z,1005.96
2017-06-16T00:20:53.143Z,1005.96
2017-06-16T00:21:34.883Z,1005.97
2017-06-16T00:22:15.481Z,1005.96
2017-06-16T00:22:56.051Z,1005.91
2017-06-16T00:23:36.644Z,1005.89
2017-06-16T00:24:17.282Z,1005.9
2017-06-16T00:24:57.863Z,1005.94
2017-06-16T00:25:38.451Z,1005.92
2017-06-16T00:26:19.061Z,1005.89
2017-06-16T00:26:59.669Z,1005.88
2017-06-16T00:27:40.288Z,1005.94
2017-06-16T00:28:20.891Z,1005.96
2017-06-16T00:29:01.499Z,1005.92
2017-06-16T00:29:42.078Z,1005.96
2017-06-16T00:30:22.673Z,1005.97
2017-06-16T00:31:03.283Z,1005.93
2017-06-16T00:31:43.848Z,1005.95
2017-06-16T00:32:24.449Z,1005.96
2017-06-16T00:33:05.065Z,1006
2017-06-16T00:33:45.668Z,1005.99
2017-06-16T00:34:26.266Z,1006.07
2017-06-16T00:35:06.988Z,1006.07
2017-06-16T00:35:47.607Z,1006.09
2017-06-16T00:36:28.204Z,1006.14
2017-06-16T00:37:08.799Z,1006.16
2017-06-16T00:37:49.406Z,1006.19
2017-06-16T00:38:30.014Z,1006.17
2017-06-16T00:39:10.648Z,1006.17
2017-06-16T00:39:51.306Z,1006.14
2017-06-16T00:40:31.913Z,1006.14
2017-06-16T00:41:12.522Z,1006.17
2017-06-16T00:41:53.115Z,1006.18
2017-06-16T00:42:33.706Z,1006.21
2017-06-16T00:43:14.321Z,1006.19
2017-06-16T00:43:54.917Z,1006.21
2017-06-16T00:44:35.497Z,1006.16
2017-06-16T00:45:16.087Z,1006.22
2017-06-16T00:45:56.787Z,1006.22
2017-06-16T00:46:37.382Z,1006.18
2017-06-16T00:47:17.965Z,1006.18
2017-06-16T00:47:58.573Z,1006.22
2017-06-16T00:48:39.191Z,1006.19
2017-06-16T00:49:19.815Z,1006.23
2017-06-16T00:50:00.447Z,1006.2
2017-06-16T00:50:41.053Z,1006.25
2017-06-16T00:51:21.658Z,1006.18
2017-06-16T00:52:02.254Z,1006.24
2017-06-16T00:52:42.865Z,1006.22
2017-06-16T00:53:23.497Z,1006.2
2017-06-16T00:54:04.080Z,1006.23
2017-06-16T00:54:44.695Z,1006.25
2017-06-16T00:55:25.317Z,1006.22
2017-06-16T00:56:05.924Z,1006.24
2017-06-16T00:56:46.529Z,1006.27
2017-06-16T00:57:27.112Z,1006.29
2017-06-16T00:58:07.750Z,1006.3
2017-06-16T00:58:48.358Z,1006.31
2017-06-16T00:59:28.964Z,1006.31
2017-06-16T01:00:09.547Z,1006.31
2017-06-16T01:00:50.153Z,1006.33
2017-06-16T01:01:30.738Z,1006.33
2017-06-16T01:02:11.335Z,1006.33
2017-06-16T01:02:51.965Z,1006.34
2017-06-16T01:03:32.608Z,1006.36
2017-06-16T01:04:13.315Z,1006.35
2017-06-16T01:04:53.912Z,1006.37
2017-06-16T01:05:34.518Z,1006.35
2017-06-16T01:06:15.134Z,1006.36
2017-06-16T01:06:55.768Z,1006.43
2017-06-16T01:07:36.409Z,1006.39
2017-06-16T01:08:17.047Z,1006.38
2017-06-16T01:08:57.683Z,1006.37
2017-06-16T01:09:38.285Z,1006.33
2017-06-16T01:10:18.878Z,1006.31
2017-06-16T01:10:59.480Z,1006.3
2017-06-16T01:11:40.128Z,1006.3
2017-06-16T01:12:20.755Z,1006.3
2017-06-16T01:13:01.365Z,1006.31
2017-06-16T01:13:42.019Z,1006.31
2017-06-16T01:14:22.638Z,1006.3
2017-06-16T01:15:03.255Z,1006.31
2017-06-16T01:15:43.888Z,1006.32
2017-06-16T01:16:24.539Z,1006.34
2017-06-16T01:17:05.155Z,1006.39
2017-06-16T01:17:45.767Z,1006.33
2017-06-16T01:18:26.379Z,1006.37
2017-06-16T01:19:07.010Z,1006.35
2017-06-16T01:19:47.636Z,1006.4
2017-06-16T01:20:28.234Z,1006.35
2017-06-16T01:21:08.826Z,1006.35
2017-06-16T01:21:49.460Z,1006.26
2017-06-16T01:22:30.060Z,1006.27
2017-06-16T01:23:10.686Z,1006.24
2017-06-16T01:23:51.312Z,1006.26
2017-06-16T01:24:31.922Z,1006.26
2017-06-16T01:25:12.539Z,1006.27
2017-06-16T01:25:53.169Z,1006.26
2017-06-16T01:26:33.775Z,1006.28
2017-06-16T01:27:14.406Z,1006.3
2017-06-16T01:27:55.006Z,1006.27
2017-06-16T01:28:35.610Z,1006.24
2017-06-16T01:29:16.449Z,1006.26
2017-06-16T01:29:57.084Z,1006.25
2017-06-16T01:30:37.723Z,1006.23
2017-06-16T01:31:18.354Z,1006.2
2017-06-16T01:31:59.003Z,1006.21
2017-06-16T01:32:39.639Z,1006.2
2017-06-16T01:33:20.253Z,1006.15
2017-06-16T01:34:00.856Z,1006.17
2017-06-16T01:34:41.472Z,1006.2
2017-06-16T01:35:22.070Z,1006.18
2017-06-16T01:36:02.685Z,1006.2
2017-06-16T01:36:43.291Z,1006.21
2017-06-16T01:37:23.916Z,1006.25
2017-06-16T01:38:04.529Z,1006.25
2017-06-16T01:38:45.175Z,1006.28
2017-06-16T01:39:25.849Z,1006.24
2017-06-16T01:40:06.437Z,1006.3
2017-06-16T01:40:47.822Z,1006.31
2017-06-16T01:41:28.451Z,1006.29
2017-06-16T01:42:09.055Z,1006.3
2017-06-16T01:42:49.689Z,1006.3
2017-06-16T01:43:30.302Z,1006.29
2017-06-16T01:44:10.915Z,1006.31
2017-06-16T01:44:51.521Z,1006.26
2017-06-16T01:45:32.121Z,1006.27
2017-06-16T01:46:12.731Z,1006.27
2017-06-16T01:46:53.330Z,1006.3
2017-06-16T01:47:33.928Z,1006.34
2017-06-16T01:48:14.551Z,1006.41
2017-06-16T01:48:55.136Z,1006.45
2017-06-16T01:49:35.731Z,1006.39
2017-06-16T01:50:16.368Z,1006.41
2017-06-16T01:50:56.943Z,1006.38
2017-06-16T01:51:37.542Z,1006.34
2017-06-16T01:52:18.145Z,1006.4
2017-06-16T01:52:58.732Z,1006.43
2017-06-16T01:53:39.324Z,1006.43
2017-06-16T01:54:19.921Z,1006.42
2017-06-16T01:55:00.537Z,1006.39
2017-06-16T01:55:41.134Z,1006.43
2017-06-16T01:56:21.762Z,1006.39
2017-06-16T01:57:02.375Z,1006.37
2017-06-16T01:57:42.964Z,1006.36
2017-06-16T01:58:23.565Z,1006.37
2017-06-16T01:59:04.155Z,1006.38
2017-06-16T01:59:44.772Z,1006.37
2017-06-16T02:00:25.355Z,1006.31
2017-06-16T02:01:05.975Z,1006.32
2017-06-16T02:01:46.569Z,1006.34
2017-06-16T02:02:27.160Z,1006.34
2017-06-16T02:03:07.747Z,1006.36
2017-06-16T02:03:48.359Z,1006.35
2017-06-16T02:04:28.986Z,1006.38
2017-06-16T02:05:09.580Z,1006.34
2017-06-16T02:05:50.181Z,1006.35
2017-06-16T02:06:30.774Z,1006.33
2017-06-16T02:07:11.376Z,1006.29
2017-06-16T02:07:51.967Z,1006.34
2017-06-16T02:08:32.587Z,1006.38
2017-06-16T02:09:13.194Z,1006.36
2017-06-16T02:09:53.810Z,1006.37
2017-06-16T02:10:34.426Z,1006.34
2017-06-16T02:11:15.048Z,1006.39
2017-06-16T02:11:55.636Z,1006.38
2017-06-16T02:12:36.253Z,1006.34
2017-06-16T02:13:16.840Z,1006.32
2017-06-16T02:13:57.462Z,1006.36
2017-06-16T02:14:38.219Z,1006.34
2017-06-16T02:15:18.907Z,1006.39
2017-06-16T02:15:59.506Z,1006.34
2017-06-16T02:16:40.161Z,1006.36
2017-06-16T02:17:20.776Z,1006.33
2017-06-16T02:18:01.394Z,1006.31
2017-06-16T02:18:42.012Z,1006.28
2017-06-16T02:19:22.710Z,1006.34
2017-06-16T02:20:03.367Z,1006.31
2017-06-16T02:20:44.022Z,1006.29
2017-06-16T02:21:24.617Z,1006.31
2017-06-16T02:22:05.280Z,1006.31
2017-06-16T02:22:45.894Z,1006.31
2017-06-16T02:23:26.525Z,1006.31
2017-06-16T02:24:07.157Z,1006.3
2017-06-16T02:24:47.790Z,1006.29
2017-06-16T02:25:28.400Z,1006.31
2017-06-16T02:26:08.983Z,1006.32
2017-06-16T02:26:49.586Z,1006.32
2017-06-16T02:27:30.260Z,1006.32
2017-06-16T02:28:10.852Z,1006.33
2017-06-16T02:28:51.454Z,1006.35
2017-06-16T02:29:32.031Z,1006.32
2017-06-16T02:30:12.613Z,1006.32
2017-06-16T02:30:53.212Z,1006.29
2017-06-16T02:31:33.807Z,1006.34
2017-06-16T02:32:14.422Z,1006.34
2017-06-16T02:32:55.019Z,1006.29
2017-06-16T02:33:35.641Z,1006.3
2017-06-16T02:34:16.237Z,1006.29
2017-06-16T02:34:56.881Z,1006.31
2017-06-16T02:35:37.485Z,1006.28
2017-06-16T02:36:18.079Z,1006.21
2017-06-16T02:36:58.693Z,1006.3
2017-06-16T02:37:39.283Z,1006.29
2017-06-16T02:38:19.844Z,1006.27
2017-06-16T02:39:00.450Z,1006.21
2017-06-16T02:39:41.038Z,1006.24
2017-06-16T02:40:21.694Z,1006.24
2017-06-16T02:41:02.301Z,1006.22
2017-06-16T02:41:42.912Z,1006.2
2017-06-16T02:42:23.514Z,1006.2
2017-06-16T02:43:04.102Z,1006.22
2017-06-16T02:43:44.726Z,1006.19
2017-06-16T02:44:25.362Z,1006.23
2017-06-16T02:46:55.706Z,1006.23
2017-06-16T02:47:36.366Z,1006.21
2017-06-16T02:48:16.968Z,1006.21
2017-06-16T02:48:57.556Z,1006.21
2017-06-16T02:49:38.316Z,1006.23
2017-06-16T02:50:18.901Z,1006.25
2017-06-16T02:50:59.512Z,1006.22
2017-06-16T02:51:40.118Z,1006.24
2017-06-16T02:52:20.717Z,1006.24
2017-06-16T02:53:01.314Z,1006.24
2017-06-16T02:53:41.907Z,1006.23
2017-06-16T02:54:22.480Z,1006.22
2017-06-16T02:55:03.080Z,1006.19
2017-06-16T02:55:43.663Z,1006.18
2017-06-16T02:56:24.283Z,1006.22
2017-06-16T02:57:04.877Z,1006.16
2017-06-16T02:57:45.490Z,1006.1
2017-06-16T02:58:26.106Z,1006.14
2017-06-16T02:59:06.695Z,1006.14
2017-06-16T02:59:47.288Z,1006.13
2017-06-16T03:00:27.891Z,1006.13
2017-06-16T03:01:08.492Z,1006.17
2017-06-16T03:01:49.113Z,1006.14
2017-06-16T03:02:29.721Z,1006.13
2017-06-16T03:03:10.313Z,1006.12
2017-06-16T03:03:50.995Z,1006.13
2017-06-16T03:04:31.617Z,1006.12
2017-06-16T03:05:12.208Z,1006.15
2017-06-16T03:05:52.796Z,1006.19
2017-06-16T03:06:33.385Z,1006.15
2017-06-16T03:07:13.991Z,1006.14
2017-06-16T03:07:54.600Z,1006.2
2017-06-16T03:08:35.193Z,1006.15
2017-06-16T03:09:15.780Z,1006.11
2017-06-16T03:09:56.376Z,1006.16
2017-06-16T03:10:36.978Z,1006.11
2017-06-16T03:11:17.570Z,1006.16
2017-06-16T03:11:58.189Z,1006.14
2017-06-16T03:12:38.807Z,1006.16
2017-06-16T03:13:19.412Z,1006.15
2017-06-16T03:14:00.015Z,1006.17
2017-06-16T03:14:40.599Z,1006.15
2017-06-16T03:15:21.244Z,1006.17
2017-06-16T03:16:01.814Z,1006.17
2017-06-16T03:16:42.406Z,1006.17
2017-06-16T03:17:23.003Z,1006.23
2017-06-16T03:18:03.602Z,1006.21
2017-06-16T03:18:44.210Z,1006.24
2017-06-16T03:19:24.812Z,1006.26
2017-06-16T03:20:05.390Z,1006.25
2017-06-16T03:20:46.014Z,1006.28
2017-06-16T03:21:26.606Z,1006.24
2017-06-16T03:22:07.198Z,1006.24
2017-06-16T03:22:47.790Z,1006.23
2017-06-16T03:23:28.379Z,1006.21
2017-06-16T03:24:08.990Z,1006.26
2017-06-16T03:24:49.593Z,1006.26
2017-06-16T03:25:30.184Z,1006.25
2017-06-16T03:26:10.794Z,1006.27
2017-06-16T03:26:51.450Z,1006.27
2017-06-16T03:27:32.127Z,1006.29
2017-06-16T03:28:12.600Z,1006.26
2017-06-16T03:28:53.209Z,1006.28
2017-06-16T03:29:33.818Z,1006.3
2017-06-16T03:30:14.411Z,1006.33
2017-06-16T03:30:55.044Z,1006.31
2017-06-16T03:31:35.654Z,1006.34
2017-06-16T03:32:16.267Z,1006.32
2017-06-16T03:32:56.876Z,1006.37
2017-06-16T03:33:37.481Z,1006.31
2017-06-16T03:34:18.115Z,1006.32
2017-06-16T03:34:58.685Z,1006.34
2017-06-16T03:35:39.287Z,1006.35
2017-06-16T03:36:19.888Z,1006.37
2017-06-16T03:37:00.472Z,1006.33
2017-06-16T03:37:41.042Z,1006.29
2017-06-16T03:38:21.633Z,1006.3
2017-06-16T03:39:02.238Z,1006.33
2017-06-16T03:39:42.863Z,1006.32
2017-06-16T03:40:23.445Z,1006.31
2017-06-16T03:41:04.047Z,1006.33
2017-06-16T03:41:44.651Z,1006.36
2017-06-16T03:42:25.249Z,1006.36
2017-06-16T03:43:05.844Z,1006.37
2017-06-16T03:43:46.451Z,1006.37
2017-06-16T03:44:27.057Z,1006.39
2017-06-16T03:45:07.662Z,1006.4
2017-06-16T03:45:48.250Z,1006.4
2017-06-16T03:46:28.853Z,1006.42
2017-06-16T03:47:09.453Z,1006.43
2017-06-16T03:47:50.063Z,1006.45
2017-06-16T03:48:30.657Z,1006.43
2017-06-16T03:49:11.301Z,1006.42
2017-06-16T03:49:51.876Z,1006.42
2017-06-16T03:50:32.466Z,1006.41
2017-06-16T03:51:13.067Z,1006.39
2017-06-16T03:51:53.674Z,1006.4
2017-06-16T03:52:34.278Z,1006.39
2017-06-16T03:53:14.885Z,1006.41
2017-06-16T03:53:55.491Z,1006.4
2017-06-16T03:54:36.093Z,1006.36
2017-06-16T03:55:16.690Z,1006.39
2017-06-16T03:55:57.280Z,1006.39
2017-06-16T03:56:37.872Z,1006.39
2017-06-16T03:57:18.472Z,1006.4
2017-06-16T03:57:59.095Z,1006.39
2017-06-16T03:58:39.711Z,1006.42
2017-06-16T03:59:20.298Z,1006.43
2017-06-16T04:00:00.900Z,1006.44
2017-06-16T04:00:41.532Z,1006.41
2017-06-16T04:01:22.119Z,1006.46
2017-06-16T04:02:02.729Z,1006.48
2017-06-16T04:02:43.319Z,1006.5
2017-06-16T04:03:23.899Z,1006.46
2017-06-16T04:04:04.521Z,1006.53
2017-06-16T04:04:45.115Z,1006.53
2017-06-16T04:05:25.705Z,1006.52
2017-06-16T04:06:06.289Z,1006.5
2017-06-16T04:06:46.898Z,1006.47
2017-06-16T04:07:27.501Z,1006.5
2017-06-16T04:08:08.097Z,1006.51
2017-06-16T04:08:48.703Z,1006.51
2017-06-16T04:09:29.318Z,1006.49
2017-06-16T04:10:09.901Z,1006.48
2017-06-16T04:10:50.492Z,1006.56
2017-06-16T04:11:31.072Z,1006.53
2017-06-16T04:12:11.646Z,1006.54
2017-06-16T04:12:52.217Z,1006.55
2017-06-16T04:13:32.813Z,1006.57
2017-06-16T04:14:13.427Z,1006.58
2017-06-16T04:14:54.040Z,1006.62
2017-06-16T04:15:34.645Z,1006.55
2017-06-16T04:16:15.253Z,1006.61
2017-06-16T04:16:55.835Z,1006.57
2017-06-16T04:17:36.448Z,1006.58
2017-06-16T04:18:17.046Z,1006.58
2017-06-16T04:18:57.656Z,1006.6
2017-06-16T04:19:38.279Z,1006.59
2017-06-16T04:20:18.899Z,1006.6
2017-06-16T04:20:59.535Z,1006.63
2017-06-16T04:21:40.146Z,1006.61
2017-06-16T04:22:20.757Z,1006.6
2017-06-16T04:23:01.351Z,1006.61
2017-06-16T04:23:41.960Z,1006.65
2017-06-16T04:24:22.548Z,1006.66
2017-06-16T04:25:03.135Z,1006.64
2017-06-16T04:25:43.719Z,1006.65
2017-06-16T04:26:24.329Z,1006.64
2017-06-16T04:27:04.915Z,1006.68
2017-06-16T04:27:45.506Z,1006.63
2017-06-16T04:28:26.091Z,1006.68
2017-06-16T04:29:06.680Z,1006.73
2017-06-16T04:29:47.296Z,1006.75
2017-06-16T04:30:27.899Z,1006.72
2017-06-16T04:31:08.482Z,1006.77
2017-06-16T04:31:49.085Z,1006.83
2017-06-16T04:32:29.666Z,1006.81
2017-06-16T04:33:10.262Z,1006.83
2017-06-16T04:33:50.876Z,1006.82
2017-06-16T04:34:31.821Z,1006.78
2017-06-16T04:35:12.438Z,1006.8
2017-06-16T04:35:53.055Z,1006.83
2017-06-16T04:36:33.636Z,1006.84
2017-06-16T04:37:14.224Z,1006.8
2017-06-16T04:37:54.822Z,1006.81
2017-06-16T04:38:35.443Z,1006.88
2017-06-16T04:39:16.022Z,1006.82
2017-06-16T04:39:56.623Z,1006.88
2017-06-16T04:40:37.224Z,1006.86
2017-06-16T04:41:17.831Z,1006.83
2017-06-16T04:41:58.431Z,1006.88
2017-06-16T04:42:39.151Z,1006.85
2017-06-16T04:43:19.795Z,1006.88
2017-06-16T04:44:00.565Z,1006.88
2017-06-16T04:44:41.192Z,1006.86
2017-06-16T04:45:22.012Z,1006.89
2017-06-16T04:46:02.676Z,1006.85
2017-06-16T04:46:43.261Z,1006.88
2017-06-16T04:47:23.915Z,1006.87
2017-06-16T04:48:04.504Z,1006.87
2017-06-16T04:48:45.127Z,1006.9
2017-06-16T04:49:25.734Z,1006.84
2017-06-16T04:50:06.310Z,1006.86
2017-06-16T04:50:47.004Z,1006.87
2017-06-16T04:51:27.575Z,1006.82
2017-06-16T04:52:08.185Z,1006.81
2017-06-16T04:52:48.800Z,1006.81
2017-06-16T04:53:29.396Z,1006.78
2017-06-16T04:54:10.014Z,1006.78
2017-06-16T04:54:50.594Z,1006.75
2017-06-16T04:55:31.184Z,1006.78
2017-06-16T04:56:11.806Z,1006.72
2017-06-16T04:56:52.403Z,1006.79
2017-06-16T04:57:33.004Z,1006.83
2017-06-16T04:58:13.595Z,1006.8
2017-06-16T04:58:54.203Z,1006.8
2017-06-16T04:59:34.817Z,1006.82
2017-06-16T05:00:15.413Z,1006.83
2017-06-16T05:00:55.992Z,1006.86
2017-06-16T05:01:36.579Z,1006.86
2017-06-16T05:02:17.155Z,1006.85
2017-06-16T05:02:57.742Z,1006.88
2017-06-16T05:03:38.325Z,1006.88
2017-06-16T05:04:18.922Z,1006.93
2017-06-16T05:04:59.521Z,1006.9
2017-06-16T05:05:40.128Z,1006.92
2017-06-16T05:06:20.783Z,1006.94
2017-06-16T05:07:01.483Z,1006.94
2017-06-16T05:07:42.084Z,1006.96
2017-06-16T05:08:22.683Z,1007
2017-06-16T05:09:03.252Z,1007.01
2017-06-16T05:09:43.877Z,1007.02
2017-06-16T05:10:24.491Z,1006.99
2017-06-16T05:11:05.097Z,1007
2017-06-16T05:11:45.681Z,1006.99
2017-06-16T05:12:26.400Z,1006.97
2017-06-16T05:13:06.988Z,1006.98
2017-06-16T05:13:47.580Z,1006.99
2017-06-16T05:14:28.164Z,1006.9
2017-06-16T05:15:08.789Z,1006.79
2017-06-16T05:15:49.399Z,1006.77
2017-06-16T05:16:29.988Z,1007.08
2017-06-16T05:17:10.644Z,1007
2017-06-16T05:17:51.246Z,1006.82
2017-06-16T05:18:31.843Z,1007.07
2017-06-16T05:19:12.446Z,1006.84
2017-06-16T05:19:53.045Z,1007.08
2017-06-16T05:20:33.631Z,1006.89
2017-06-16T05:21:14.298Z,1006.84
2017-06-16T05:21:54.869Z,1007.01
2017-06-16T05:22:35.525Z,1007.11
2017-06-16T05:23:16.103Z,1007
2017-06-16T05:23:56.722Z,1007.09
2017-06-16T05:24:37.320Z,1007.1
2017-06-16T05:25:17.933Z,1007.06
2017-06-16T05:25:58.572Z,1007.04
2017-06-16T05:26:39.234Z,1007.07
2017-06-16T05:27:19.826Z,1007.07
2017-06-16T05:28:00.427Z,1007.14
2017-06-16T05:28:41.021Z,1007.12
2017-06-16T05:29:21.615Z,1007.09
2017-06-16T05:30:02.227Z,1007.2
2017-06-16T05:30:42.821Z,1007.14
2017-06-16T05:31:23.435Z,1007.16
2017-06-16T05:32:04.040Z,1007.19
2017-06-16T05:32:44.732Z,1007.16
2017-06-16T05:33:25.303Z,1007.18
2017-06-16T05:34:05.893Z,1007.21
2017-06-16T05:34:46.508Z,1007.32
2017-06-16T05:35:27.147Z,1007.33
2017-06-16T05:36:07.864Z,1007.13
2017-06-16T05:36:48.474Z,1007.3
2017-06-16T05:37:29.067Z,1007.47
2017-06-16T05:38:09.686Z,1007.53
2017-06-16T05:38:50.276Z,1007.61
2017-06-16T05:39:30.884Z,1007.27
2017-06-16T05:40:11.577Z,1007.3
2017-06-16T05:40:52.182Z,1007.85
2017-06-16T05:41:32.793Z,1007.66
2017-06-16T05:42:13.394Z,1007.69
2017-06-16T05:42:53.980Z,1008.06
2017-06-16T05:43:34.595Z,1007.69
2017-06-16T05:44:15.211Z,1007.51
2017-06-16T05:44:55.791Z,1008.13
2017-06-16T05:45:36.389Z,1007.77
2017-06-16T05:46:16.985Z,1007.57
2017-06-16T05:46:57.582Z,1008.48
2017-06-16T05:47:38.180Z,1008.45
2017-06-16T05:48:18.797Z,1008.11
2017-06-16T05:48:59.440Z,1008.19
2017-06-16T05:49:40.091Z,1007.42
2017-06-16T05:50:20.684Z,1007.79
2017-06-16T05:51:01.306Z,1007.6
2017-06-16T05:51:41.931Z,1008.38
2017-06-16T05:52:22.561Z,1007.54
2017-06-16T05:53:03.158Z,1007.4
2017-06-16T05:53:43.808Z,1007.39
2017-06-16T05:54:24.481Z,1007.48
2017-06-16T05:55:05.099Z,1007.45
2017-06-16T05:55:45.704Z,1007.54
2017-06-16T05:56:26.320Z,1007.55
2017-06-16T05:57:06.935Z,1008.48
2017-06-16T05:57:47.554Z,1008.22
2017-06-16T05:58:28.167Z,1007.55
2017-06-16T05:59:08.764Z,1008.11
2017-06-16T05:59:49.370Z,1007.45
2017-06-16T06:00:29.987Z,1007.58
2017-06-16T06:01:10.605Z,1007.45
2017-06-16T06:01:51.244Z,1007.44
2017-06-16T06:02:31.835Z,1007.56
2017-06-16T06:03:12.444Z,1007.58
2017-06-16T06:03:53.051Z,1007.56
2017-06-16T06:04:33.668Z,1007.52
2017-06-16T06:05:14.284Z,1007.47
2017-06-16T06:05:54.883Z,1007.83
2017-06-16T06:06:35.491Z,1007.45
2017-06-16T06:07:16.112Z,1007.44
2017-06-16T06:07:56.715Z,1007.52
2017-06-16T06:08:37.315Z,1007.52
2017-06-16T06:09:17.901Z,1007.55
2017-06-16T06:09:58.514Z,1007.74
2017-06-16T06:10:39.130Z,1007.96
2017-06-16T06:11:56.778Z,1007.66
2017-06-16T06:13:29.210Z,1007.52
2017-06-16T06:14:09.808Z,1007.59
2017-06-16T06:14:50.408Z,1008.4
2017-06-16T06:15:31.021Z,1007.5
2017-06-16T06:16:11.604Z,1007.54
2017-06-16T06:16:52.217Z,1007.53
2017-06-16T06:17:32.854Z,1007.53
2017-06-16T06:18:13.441Z,1007.54
2017-06-16T06:18:54.060Z,1007.5
2017-06-16T06:19:34.674Z,1007.48
2017-06-16T06:20:15.273Z,1007.49
2017-06-16T06:20:55.902Z,1007.47
2017-06-16T06:21:36.565Z,1007.49
2017-06-16T06:22:17.151Z,1007.5
2017-06-16T06:22:57.746Z,1007.56
2017-06-16T06:23:38.356Z,1007.54
2017-06-16T06:24:18.948Z,1007.5
2017-06-16T06:24:59.559Z,1007.45
2017-06-16T06:25:40.164Z,1007.48
2017-06-16T06:26:20.761Z,1007.53
2017-06-16T06:27:01.417Z,1007.54
2017-06-16T06:27:42.001Z,1007.54
2017-06-16T06:28:22.589Z,1007.54
2017-06-16T06:29:03.184Z,1007.56
2017-06-16T06:29:43.773Z,1007.55
2017-06-16T06:30:24.361Z,1007.55
2017-06-16T06:31:04.967Z,1007.58
2017-06-16T06:31:45.578Z,1007.62
2017-06-16T06:32:26.180Z,1007.66
2017-06-16T06:33:06.762Z,1007.61
2017-06-16T06:33:47.370Z,1007.68
2017-06-16T06:34:27.977Z,1007.68
2017-06-16T06:35:08.680Z,1007.62
2017-06-16T06:35:49.291Z,1007.72
2017-06-16T06:36:29.898Z,1007.67
2017-06-16T06:37:10.487Z,1007.8
2017-06-16T06:37:51.092Z,1007.8
2017-06-16T06:38:31.678Z,1008
2017-06-16T06:39:12.266Z,1007.97
2017-06-16T06:39:52.848Z,1007.8
2017-06-16T06:40:33.436Z,1007.82
2017-06-16T06:41:14.079Z,1007.81
2017-06-16T06:41:54.647Z,1007.82
2017-06-16T06:42:35.243Z,1007.8
2017-06-16T06:43:15.869Z,1007.85
2017-06-16T06:43:56.462Z,1007.87
2017-06-16T06:44:37.052Z,1007.84
2017-06-16T06:45:17.701Z,1007.9
2017-06-16T06:46:05.240Z,1007.88
2017-06-16T06:46:45.834Z,1007.93
2017-06-16T06:47:26.455Z,1007.98
2017-06-16T06:48:07.048Z,1008.06
2017-06-16T06:48:47.651Z,1008
2017-06-16T06:49:28.237Z,1008.01
2017-06-16T06:50:08.835Z,1008.08
2017-06-16T06:50:49.442Z,1008.07
2017-06-16T06:51:30.053Z,1008.19
2017-06-16T06:52:10.661Z,1008.11
2017-06-16T06:52:51.257Z,1008.19
2017-06-16T06:53:31.857Z,1008.19
2017-06-16T06:54:12.468Z,1008.19
2017-06-16T06:54:53.069Z,1008.27
2017-06-16T06:55:33.659Z,1008.21
2017-06-16T06:56:14.268Z,1008.22
2017-06-16T06:56:54.861Z,1008.26
2017-06-16T06:57:35.463Z,1008.28
2017-06-16T06:58:16.060Z,1008.3
2017-06-16T06:58:56.657Z,1008.29
2017-06-16T06:59:37.238Z,1008.31
2017-06-16T07:00:17.826Z,1008.34
2017-06-16T07:00:58.458Z,1008.35
2017-06-16T07:01:39.042Z,1008.32
2017-06-16T07:02:19.658Z,1008.32
2017-06-16T07:03:00.250Z,1008.32
2017-06-16T07:03:40.850Z,1008.3
2017-06-16T07:04:21.444Z,1008.31
2017-06-16T07:05:02.064Z,1008.3
2017-06-16T07:05:42.677Z,1008.35
2017-06-16T07:06:23.261Z,1008.35
2017-06-16T07:07:03.849Z,1008.38
2017-06-16T07:07:44.467Z,1008.36
2017-06-16T07:08:25.061Z,1008.35
2017-06-16T07:09:05.681Z,1008.31
2017-06-16T07:09:46.252Z,1008.34
2017-06-16T07:10:26.884Z,1008.37
2017-06-16T07:11:07.476Z,1008.37
2017-06-16T07:11:48.082Z,1008.42
2017-06-16T07:12:28.662Z,1008.43
2017-06-16T07:13:09.303Z,1008.43
2017-06-16T07:13:49.897Z,1008.47
2017-06-16T07:14:30.493Z,1008.43
2017-06-16T07:15:11.082Z,1008.41
2017-06-16T07:15:51.697Z,1008.45
2017-06-16T07:16:32.284Z,1008.44
2017-06-16T07:17:12.872Z,1008.4
2017-06-16T07:17:53.459Z,1008.44
2017-06-16T07:18:34.049Z,1008.39
2017-06-16T07:19:14.668Z,1008.43
2017-06-16T07:19:55.252Z,1008.4
2017-06-16T07:20:35.864Z,1008.36
2017-06-16T07:21:16.475Z,1008.39
2017-06-16T07:21:57.090Z,1008.36
2017-06-16T07:22:37.668Z,1008.31
2017-06-16T07:23:18.261Z,1008.27
2017-06-16T07:23:58.897Z,1008.28
2017-06-16T07:24:39.475Z,1008.23
2017-06-16T07:25:20.843Z,1008.24
2017-06-16T07:26:01.508Z,1008.26
2017-06-16T07:26:45.030Z,1008.24
2017-06-16T07:27:25.630Z,1008.29
2017-06-16T07:28:06.394Z,1008.24
2017-06-16T07:28:46.988Z,1008.25
2017-06-16T07:29:27.573Z,1008.32
2017-06-16T07:30:08.149Z,1008.26
2017-06-16T07:30:48.744Z,1008.35
2017-06-16T07:31:29.325Z,1008.29
2017-06-16T07:32:09.920Z,1008.31
2017-06-16T07:32:50.515Z,1008.25
2017-06-16T07:33:31.085Z,1008.3
2017-06-16T07:34:11.676Z,1008.24
2017-06-16T07:34:52.258Z,1008.27
2017-06-16T07:35:32.842Z,1008.22
2017-06-16T07:36:13.429Z,1008.25
2017-06-16T07:36:54.020Z,1008.26
2017-06-16T07:37:34.619Z,1008.28
2017-06-16T07:38:15.222Z,1008.26
2017-06-16T07:38:55.823Z,1008.28
2017-06-16T07:39:36.411Z,1008.3
2017-06-16T07:40:17.008Z,1008.33
2017-06-16T07:40:57.591Z,1008.31
2017-06-16T07:41:38.170Z,1008.33
2017-06-16T07:42:18.774Z,1008.38
2017-06-16T07:42:59.353Z,1008.37
2017-06-16T07:43:39.951Z,1008.41
2017-06-16T07:44:20.547Z,1008.41
2017-06-16T07:45:01.121Z,1008.42
2017-06-16T07:45:41.715Z,1008.43
2017-06-16T07:46:22.318Z,1008.44
2017-06-16T07:47:02.916Z,1008.45
2017-06-16T07:47:43.519Z,1008.43
2017-06-16T07:48:24.111Z,1008.38
2017-06-16T07:49:04.692Z,1008.42
2017-06-16T07:49:45.276Z,1008.48
2017-06-16T07:50:25.864Z,1008.47
2017-06-16T07:51:06.494Z,1008.48
2017-06-16T07:51:47.096Z,1008.49
2017-06-16T07:52:27.730Z,1008.52
2017-06-16T07:53:08.309Z,1008.49
2017-06-16T07:53:48.954Z,1008.54
2017-06-16T07:54:29.566Z,1008.5
2017-06-16T07:55:10.170Z,1008.5
2017-06-16T07:55:50.782Z,1008.53
2017-06-16T07:56:31.378Z,1008.56
2017-06-16T07:57:11.990Z,1008.6
2017-06-16T07:57:52.597Z,1008.57
2017-06-16T07:58:33.185Z,1008.61
2017-06-16T07:59:13.787Z,1008.57
2017-06-16T07:59:54.395Z,1008.57
2017-06-16T08:00:34.997Z,1008.59
2017-06-16T08:01:15.571Z,1008.54
2017-06-16T08:01:56.180Z,1008.6
2017-06-16T08:02:36.777Z,1008.58
2017-06-16T08:03:17.358Z,1008.57
2017-06-16T08:03:57.977Z,1008.65
2017-06-16T08:04:38.562Z,1008.69
2017-06-16T08:05:19.159Z,1008.64
2017-06-16T08:05:59.864Z,1008.66
2017-06-16T08:06:40.464Z,1008.67
2017-06-16T08:07:21.059Z,1008.67
2017-06-16T08:08:01.680Z,1008.64
2017-06-16T08:08:42.292Z,1008.68
2017-06-16T08:09:22.890Z,1008.72
2017-06-16T08:10:03.488Z,1008.78
2017-06-16T08:10:44.082Z,1008.85
2017-06-16T08:11:24.663Z,1008.87
2017-06-16T08:12:05.250Z,1008.87
2017-06-16T08:12:45.833Z,1008.87
2017-06-16T08:13:26.429Z,1008.93
2017-06-16T08:14:07.023Z,1008.92
2017-06-16T08:14:47.625Z,1008.98
2017-06-16T08:15:28.225Z,1009.02
2017-06-16T08:16:08.851Z,1009.04
2017-06-16T08:16:49.444Z,1009.02